createdAt,value
2023-04-26T00:00:47.388Z,80.99
2023-04-26T00:03:49.994Z,81.56
2023-04-26T00:06:52.445Z,81.94
2023-04-26T00:09:54.736Z,82.13
2023-04-26T00:12:57.027Z,82.20
2023-04-26T00:15:59.384Z,82.34
2023-04-26T00:19:02.233Z,82.49
2023-04-26T00:22:05.624Z,82.52
2023-04-26T00:25:08.291Z,82.37
2023-04-26T00:28:10.604Z,82.31
2023-04-26T00:31:17.279Z,82.56
2023-04-26T00:34:19.620Z,82.62
2023-04-26T00:37:21.966Z,82.46
2023-04-26T00:40:24.326Z,82.50
2023-04-26T00:43:26.603Z,82.83
2023-04-26T00:46:31.114Z,83.39
2023-04-26T00:49:33.803Z,83.67
2023-04-26T00:52:36.355Z,83.33
2023-04-26T00:55:38.672Z,83.15
2023-04-26T00:58:41.084Z,83.21
2023-04-26T01:01:43.445Z,83.37
2023-04-26T01:04:45.916Z,83.81
2023-04-26T01:07:48.206Z,83.82
2023-04-26T01:10:50.586Z,83.97
2023-04-26T01:13:53.504Z,83.85
2023-04-26T01:16:57.745Z,83.81
2023-04-26T01:20:01.021Z,83.63
2023-04-26T01:23:03.406Z,83.93
2023-04-26T01:26:05.699Z,83.79
2023-04-26T01:29:34.710Z,83.64
2023-04-26T01:32:37.156Z,83.78
2023-04-26T01:35:39.510Z,83.93
2023-04-26T01:38:41.778Z,83.79
2023-04-26T01:41:44.035Z,83.72
2023-04-26T01:44:46.604Z,83.82
2023-04-26T01:47:49.078Z,83.61
2023-04-26T01:50:51.331Z,83.34
2023-04-26T01:53:53.828Z,83.90
2023-04-26T01:56:56.102Z,83.79
2023-04-26T01:59:59.506Z,83.38
2023-04-26T02:03:02.013Z,83.45
2023-04-26T02:06:05.776Z,83.66
2023-04-26T02:09:09.730Z,83.30
2023-04-26T02:12:15.530Z,83.72
2023-04-26T02:15:17.929Z,83.28
2023-04-26T02:18:22.240Z,83.11
2023-04-26T02:21:26.937Z,82.96
2023-04-26T02:24:30.580Z,83.21
2023-04-26T02:27:38.423Z,82.96
2023-04-26T02:30:40.874Z,82.62
2023-04-26T02:33:43.621Z,83.36
2023-04-26T02:36:47.702Z,83.86
2023-04-26T02:39:51.510Z,83.29
2023-04-26T02:42:53.957Z,83.41
2023-04-26T02:45:58.752Z,83.65
2023-04-26T02:49:01.125Z,83.75
2023-04-26T02:52:03.494Z,84.04
2023-04-26T02:55:07.578Z,83.35
2023-04-26T02:58:09.989Z,83.98
2023-04-26T03:01:13.887Z,84.40
2023-04-26T03:04:18.312Z,84.47
2023-04-26T03:07:20.727Z,84.48
2023-04-26T03:10:22.949Z,84.65
2023-04-26T03:13:25.280Z,84.27
2023-04-26T03:16:31.921Z,84.55
2023-04-26T03:19:34.390Z,84.54
2023-04-26T03:22:39.207Z,84.31
2023-04-26T03:25:41.638Z,84.55
2023-04-26T03:28:44.021Z,84.63
2023-04-26T03:31:46.495Z,84.64
2023-04-26T03:34:49.910Z,84.51
2023-04-26T03:37:53.486Z,84.29
2023-04-26T03:40:58.848Z,84.36
2023-04-26T03:44:01.353Z,84.03
2023-04-26T03:47:05.253Z,84.10
2023-04-26T03:50:08.661Z,84.10
2023-04-26T03:53:11.823Z,84.14
2023-04-26T03:56:14.562Z,84.07
2023-04-26T03:59:16.817Z,84.26
2023-04-26T04:02:19.277Z,84.19
2023-04-26T04:05:21.664Z,84.37
2023-04-26T04:08:24.061Z,84.05
2023-04-26T04:11:26.539Z,85.88
2023-04-26T04:14:28.869Z,83.43
2023-04-26T04:17:31.301Z,83.49
2023-04-26T04:20:34.256Z,83.06
2023-04-26T04:23:36.808Z,82.67
2023-04-26T04:26:43.207Z,82.63
2023-04-26T04:29:46.269Z,81.51
2023-04-26T04:32:49.110Z,81.99
2023-04-26T04:35:52.577Z,81.89
2023-04-26T04:38:55.148Z,82.15
2023-04-26T04:41:59.085Z,82.31
2023-04-26T04:45:03.463Z,82.00
2023-04-26T04:48:06.381Z,80.04
2023-04-26T04:51:10.121Z,81.45
2023-04-26T04:54:17.955Z,78.95
2023-04-26T04:57:22.994Z,77.96
2023-04-26T05:00:28.244Z,77.75
2023-04-26T05:03:56.995Z,79.31
2023-04-26T05:07:00.536Z,77.70
2023-04-26T05:10:04.137Z,78.01
2023-04-26T05:13:06.791Z,78.12
2023-04-26T05:16:10.140Z,77.80
2023-04-26T05:19:13.510Z,77.37
2023-04-26T05:22:22.321Z,77.51
2023-04-26T05:25:26.128Z,77.05
2023-04-26T05:28:42.310Z,76.70
2023-04-26T05:31:57.409Z,76.66
2023-04-26T05:35:14.889Z,76.17
2023-04-26T05:38:17.274Z,76.63
2023-04-26T05:41:26.211Z,74.53
2023-04-26T05:44:29.347Z,74.62
2023-04-26T05:47:34.752Z,73.09
2023-04-26T05:50:40.001Z,73.82
2023-04-26T05:53:55.231Z,72.74
2023-04-26T05:57:03.902Z,72.79
2023-04-26T06:00:09.987Z,72.80
2023-04-26T06:03:20.388Z,70.90
2023-04-26T06:06:24.138Z,70.77
2023-04-26T06:09:27.351Z,70.80
2023-04-26T06:12:30.086Z,69.84
2023-04-26T06:15:37.037Z,68.77
2023-04-26T06:18:41.310Z,68.45
2023-04-26T06:21:44.082Z,68.12
2023-04-26T06:24:49.950Z,68.14
2023-04-26T06:27:56.149Z,66.88
2023-04-26T06:31:03.967Z,66.08
2023-04-26T06:34:07.924Z,65.26
2023-04-26T06:37:11.607Z,64.83
2023-04-26T06:40:20.969Z,63.36
2023-04-26T06:43:34.471Z,63.60
2023-04-26T06:46:42.549Z,62.01
2023-04-26T06:49:51.385Z,60.75
2023-04-26T06:53:02.139Z,61.35
2023-04-26T06:56:07.247Z,60.09
2023-04-26T06:59:10.339Z,59.51
2023-04-26T07:02:13.896Z,58.62
2023-04-26T07:05:21.565Z,58.54
2023-04-26T07:12:09.209Z,55.99
2023-04-26T07:15:26.445Z,56.72
2023-04-26T07:18:42.905Z,55.85
2023-04-26T07:21:55.565Z,55.44
2023-04-26T07:25:05.426Z,54.23
2023-04-26T07:28:12.329Z,54.60
2023-04-26T07:31:19.346Z,53.90
2023-04-26T07:34:23.942Z,53.20
2023-04-26T07:37:26.182Z,52.92
2023-04-26T07:40:29.391Z,51.90
2023-04-26T07:43:34.201Z,51.97
2023-04-26T07:46:39.335Z,51.11
2023-04-26T07:49:42.207Z,51.21
2023-04-26T07:52:44.972Z,50.62
2023-04-26T07:55:50.601Z,51.12
2023-04-26T07:58:58.793Z,51.48
2023-04-26T08:02:09.988Z,48.89
2023-04-26T08:05:28.140Z,50.42
2023-04-26T08:08:49.902Z,48.45
2023-04-26T08:11:56.243Z,47.23
2023-04-26T08:15:04.918Z,47.44
2023-04-26T08:18:12.566Z,47.07
2023-04-26T08:21:16.330Z,45.54
2023-04-26T08:24:35.033Z,47.55
2023-04-26T08:27:45.027Z,50.03
2023-04-26T08:30:54.925Z,49.00
2023-04-26T08:34:00.262Z,49.41
2023-04-26T08:37:04.178Z,48.84
2023-04-26T08:40:12.437Z,45.84
2023-04-26T08:43:27.632Z,45.12
2023-04-26T08:47:11.165Z,43.96
2023-04-26T08:50:17.382Z,44.47
2023-04-26T08:53:21.733Z,45.27
2023-04-26T08:56:41.434Z,45.79
2023-04-26T08:59:48.258Z,44.12
2023-04-26T09:02:54.085Z,44.23
2023-04-26T09:06:09.516Z,44.23
2023-04-26T09:09:17.262Z,45.71
2023-04-26T09:12:25.322Z,46.82
2023-04-26T09:15:36.882Z,44.42
2023-04-26T09:18:53.112Z,43.22
2023-04-26T09:21:56.228Z,43.40
2023-04-26T09:25:03.402Z,41.85
2023-04-26T09:28:21.998Z,41.87
2023-04-26T09:31:43.072Z,41.00
2023-04-26T09:34:47.756Z,41.81
2023-04-26T09:38:12.722Z,40.94
2023-04-26T09:41:16.168Z,40.73
2023-04-26T09:44:25.064Z,42.27
2023-04-26T09:47:32.311Z,43.75
2023-04-26T09:50:34.730Z,42.35
2023-04-26T09:53:39.237Z,41.22
2023-04-26T09:56:51.965Z,40.23
2023-04-26T09:59:59.676Z,39.58
2023-04-26T10:03:10.223Z,37.93
2023-04-26T10:06:13.924Z,38.41
2023-04-26T10:09:16.785Z,36.75
2023-04-26T10:12:24.447Z,37.34
2023-04-26T10:15:29.194Z,36.30
2023-04-26T10:18:32.756Z,36.21
2023-04-26T10:21:42.385Z,36.63
2023-04-26T10:24:46.684Z,36.78
2023-04-26T10:27:53.111Z,35.44
2023-04-26T10:30:56.872Z,37.91
2023-04-26T10:34:18.083Z,34.96
2023-04-26T10:37:21.553Z,35.92
2023-04-26T10:40:26.437Z,35.97
2023-04-26T10:43:29.670Z,35.95
2023-04-26T10:46:39.814Z,35.53
2023-04-26T10:49:47.038Z,34.70
2023-04-26T10:53:04.377Z,33.91
2023-04-26T10:56:06.896Z,34.11
2023-04-26T10:59:28.545Z,34.86
2023-04-26T11:02:57.762Z,34.12
2023-04-26T11:06:02.056Z,36.18
2023-04-26T11:09:48.702Z,36.09
2023-04-26T11:13:01.451Z,36.68
2023-04-26T11:16:08.733Z,36.32
2023-04-26T11:19:11.705Z,36.63
2023-04-26T11:22:14.807Z,36.73
2023-04-26T11:25:17.119Z,34.93
2023-04-26T11:28:23.552Z,33.53
2023-04-26T11:31:26.080Z,35.11
2023-04-26T11:34:31.182Z,35.45
2023-04-26T11:37:34.771Z,37.50
2023-04-26T11:40:38.103Z,36.51
2023-04-26T11:43:40.484Z,35.06
2023-04-26T11:46:43.671Z,36.14
2023-04-26T11:49:47.646Z,36.37
2023-04-26T11:52:50.328Z,34.55
2023-04-26T11:55:52.618Z,34.46
2023-04-26T11:58:55.235Z,34.45
2023-04-26T12:01:58.291Z,32.47
2023-04-26T12:05:00.977Z,32.29
2023-04-26T12:08:03.572Z,32.01
2023-04-26T12:11:07.746Z,34.18
2023-04-26T12:14:11.476Z,33.49
2023-04-26T12:17:15.796Z,32.69
2023-04-26T12:20:19.120Z,31.60
2023-04-26T12:23:21.453Z,32.73
2023-04-26T12:26:41.867Z,32.10
2023-04-26T12:29:44.257Z,32.21
2023-04-26T12:32:46.599Z,32.87
2023-04-26T12:35:50.281Z,32.01
2023-04-26T12:38:52.574Z,31.51
2023-04-26T12:41:57.737Z,32.98
2023-04-26T12:44:59.937Z,34.10
2023-04-26T12:48:02.373Z,36.33
2023-04-26T12:51:04.789Z,35.78
2023-04-26T12:54:07.121Z,34.38
2023-04-26T12:57:09.366Z,35.62
2023-04-26T13:00:13.997Z,35.12
2023-04-26T13:03:16.506Z,35.42
2023-04-26T13:06:18.864Z,38.17
2023-04-26T13:09:21.589Z,39.21
2023-04-26T13:12:24.143Z,39.66
2023-04-26T13:15:26.929Z,39.59
2023-04-26T13:18:29.188Z,37.35
2023-04-26T13:21:31.421Z,37.89
2023-04-26T13:24:35.098Z,36.50
2023-04-26T13:27:37.347Z,35.67
2023-04-26T13:30:39.705Z,36.14
2023-04-26T13:33:42.291Z,34.43
2023-04-26T13:36:44.554Z,35.15
2023-04-26T13:39:47.626Z,34.78
2023-04-26T13:42:50.458Z,33.34
2023-04-26T13:45:52.711Z,33.55
2023-04-26T13:48:55.563Z,33.31
2023-04-26T13:51:57.994Z,35.50
2023-04-26T13:55:00.608Z,36.17
2023-04-26T13:58:02.899Z,35.79
2023-04-26T14:01:05.297Z,36.27
2023-04-26T14:04:10.934Z,37.04
2023-04-26T14:07:13.313Z,35.96
2023-04-26T14:10:15.979Z,37.49
2023-04-26T14:13:18.214Z,38.09
2023-04-26T14:16:21.146Z,38.08
2023-04-26T14:19:23.559Z,37.22
2023-04-26T14:22:27.274Z,38.42
2023-04-26T14:25:30.936Z,38.50
2023-04-26T14:28:33.186Z,36.59
2023-04-26T14:31:35.633Z,36.77
2023-04-26T14:34:40.042Z,35.90
2023-04-26T14:37:42.372Z,37.50
2023-04-26T14:40:45.563Z,39.73
2023-04-26T14:43:47.967Z,39.81
2023-04-26T14:46:51.565Z,38.37
2023-04-26T14:49:53.870Z,37.93
2023-04-26T14:52:56.516Z,37.14
2023-04-26T14:55:59.623Z,38.10
2023-04-26T14:59:02.512Z,37.20
2023-04-26T15:02:05.353Z,38.82
2023-04-26T15:05:08.270Z,40.03
2023-04-26T15:08:10.850Z,39.66
2023-04-26T15:11:13.225Z,39.41
2023-04-26T15:14:15.765Z,39.47
2023-04-26T15:17:18.124Z,37.80
2023-04-26T15:20:20.739Z,39.04
2023-04-26T15:23:23.418Z,39.00
2023-04-26T15:26:26.035Z,40.42
2023-04-26T15:29:31.712Z,39.36
2023-04-26T15:32:34.052Z,39.97
2023-04-26T15:35:36.488Z,39.12
2023-04-26T15:38:38.836Z,41.13
2023-04-26T15:41:41.145Z,42.73
2023-04-26T15:44:43.441Z,42.76
2023-04-26T15:47:46.322Z,44.68
2023-04-26T15:50:48.632Z,44.38
2023-04-26T15:53:51.520Z,42.57
2023-04-26T15:56:55.274Z,42.28
2023-04-26T15:59:57.881Z,44.05
2023-04-26T16:03:00.251Z,43.94
2023-04-26T16:06:02.691Z,44.14
2023-04-26T16:09:23.322Z,43.49
2023-04-26T16:12:26.885Z,43.03
2023-04-26T16:15:29.122Z,43.73
2023-04-26T16:18:31.904Z,43.64
2023-04-26T16:21:41.205Z,43.72
2023-04-26T16:24:43.511Z,44.07
2023-04-26T16:27:45.889Z,44.62
2023-04-26T16:30:49.122Z,44.97
2023-04-26T16:33:51.971Z,44.85
2023-04-26T16:36:54.184Z,44.42
2023-04-26T16:39:56.589Z,44.35
2023-04-26T16:42:58.812Z,44.90
2023-04-26T16:46:03.168Z,45.71
2023-04-26T16:49:09.642Z,45.71
2023-04-26T16:52:11.993Z,44.79
2023-04-26T16:55:14.283Z,45.64
2023-04-26T16:58:16.698Z,46.05
2023-04-26T17:01:18.996Z,46.96
2023-04-26T17:04:21.580Z,46.87
2023-04-26T17:07:24.080Z,48.35
2023-04-26T17:10:26.885Z,48.35
2023-04-26T17:13:30.777Z,48.14
2023-04-26T17:16:33.056Z,49.11
2023-04-26T17:19:35.362Z,48.15
2023-04-26T17:22:37.666Z,49.15
2023-04-26T17:25:39.936Z,47.57
2023-04-26T17:28:42.323Z,48.19
2023-04-26T17:31:44.682Z,49.50
2023-04-26T17:34:47.008Z,49.68
2023-04-26T17:37:50.518Z,50.44
2023-04-26T17:40:55.918Z,51.63
2023-04-26T17:43:58.221Z,53.02
2023-04-26T17:47:00.511Z,54.17
2023-04-26T17:50:03.590Z,53.82
2023-04-26T17:53:06.286Z,54.00
2023-04-26T17:56:10.029Z,54.81
2023-04-26T17:59:12.322Z,55.75
2023-04-26T18:02:14.643Z,55.77
2023-04-26T18:05:21.530Z,57.00
2023-04-26T18:08:23.762Z,58.21
2023-04-26T18:11:26.221Z,60.97
2023-04-26T18:14:28.660Z,60.01
2023-04-26T18:17:30.993Z,60.21
2023-04-26T18:20:35.766Z,59.07
2023-04-26T18:23:38.899Z,57.49
2023-04-26T18:26:42.518Z,58.70
2023-04-26T18:29:44.813Z,58.65
2023-04-26T18:32:47.206Z,58.12
2023-04-26T18:35:49.742Z,59.09
2023-04-26T18:38:52.017Z,58.37
2023-04-26T18:41:54.285Z,58.61
2023-04-26T18:44:56.711Z,58.63
2023-04-26T18:47:58.998Z,58.75
2023-04-26T18:51:04.867Z,59.46
2023-04-26T18:54:07.084Z,59.13
2023-04-26T18:57:10.718Z,58.40
2023-04-26T19:00:13.308Z,58.59
2023-04-26T19:03:19.286Z,66.87
2023-04-26T19:06:22.292Z,66.87
2023-04-26T19:09:24.598Z,68.06
2023-04-26T19:12:27.568Z,66.99
2023-04-26T19:15:29.981Z,68.33
2023-04-26T19:18:32.244Z,69.86
2023-04-26T19:21:35.203Z,70.32
2023-04-26T19:24:37.464Z,70.89
2023-04-26T19:27:39.929Z,69.58
2023-04-26T19:30:42.181Z,64.50
2023-04-26T19:33:46.164Z,64.88
2023-04-26T19:36:48.550Z,66.60
2023-04-26T19:39:50.809Z,64.05
2023-04-26T19:42:53.116Z,64.98
2023-04-26T19:45:55.500Z,64.61
2023-04-26T19:48:57.790Z,64.92
2023-04-26T19:52:01.362Z,67.32
2023-04-26T19:55:03.777Z,70.29
2023-04-26T19:58:07.022Z,71.73
2023-04-26T20:01:09.507Z,70.95
2023-04-26T20:04:11.963Z,69.75
2023-04-26T20:07:14.241Z,73.00
2023-04-26T20:10:16.592Z,72.04
2023-04-26T20:13:18.822Z,73.65
2023-04-26T20:16:21.171Z,73.48
2023-04-26T20:19:23.598Z,74.35
2023-04-26T20:22:25.855Z,73.65
2023-04-26T20:25:28.084Z,73.84
2023-04-26T20:28:30.547Z,75.21
2023-04-26T20:31:32.811Z,77.12
2023-04-26T20:34:35.134Z,77.50
2023-04-26T20:37:37.362Z,78.17
2023-04-26T20:40:39.611Z,78.28
2023-04-26T20:43:41.840Z,74.81
2023-04-26T20:46:44.068Z,77.48
2023-04-26T20:49:46.310Z,74.89
2023-04-26T20:52:48.555Z,75.93
2023-04-26T20:55:54.107Z,77.27
2023-04-26T20:58:57.663Z,79.05
2023-04-26T21:02:00.021Z,79.88
2023-04-26T21:05:02.379Z,82.19
2023-04-26T21:08:04.717Z,80.07
2023-04-26T21:11:06.972Z,80.13
2023-04-26T21:14:09.334Z,79.80
2023-04-26T21:17:11.713Z,79.91
2023-04-26T21:20:14.048Z,79.80
2023-04-26T21:23:16.361Z,79.47
2023-04-26T21:26:18.595Z,78.44
2023-04-26T21:29:20.963Z,78.70
2023-04-26T21:32:23.166Z,78.57
2023-04-26T21:35:25.674Z,78.16
2023-04-26T21:38:27.903Z,77.33
2023-04-26T21:41:30.082Z,77.87
2023-04-26T21:44:32.265Z,77.94
2023-04-26T21:47:34.571Z,78.81
2023-04-26T21:50:37.020Z,77.55
2023-04-26T21:53:39.263Z,79.38
2023-04-26T21:56:41.649Z,78.44
2023-04-26T21:59:44.487Z,78.42
2023-04-26T22:02:46.826Z,79.05
2023-04-26T22:05:49.354Z,78.58
2023-04-26T22:08:51.607Z,77.05
2023-04-26T22:11:53.947Z,79.26
2023-04-26T22:14:56.186Z,79.32
2023-04-26T22:17:58.534Z,80.07
2023-04-26T22:21:01.079Z,82.00
2023-04-26T22:24:05.007Z,82.03
2023-04-26T22:27:07.702Z,81.32
2023-04-26T22:30:24.084Z,79.85
2023-04-26T22:33:27.498Z,80.30
2023-04-26T22:36:29.917Z,79.43
2023-04-26T22:39:32.214Z,80.02
2023-04-26T22:42:34.460Z,79.54
2023-04-26T22:45:36.969Z,80.46
2023-04-26T22:48:39.339Z,80.52
2023-04-26T22:51:42.768Z,82.07
2023-04-26T22:54:51.276Z,81.92
2023-04-26T22:57:53.499Z,81.60
2023-04-26T23:00:55.839Z,82.25
2023-04-26T23:03:58.062Z,82.63
2023-04-26T23:07:00.436Z,81.33
2023-04-26T23:10:02.971Z,82.46
2023-04-26T23:13:06.364Z,81.92
2023-04-26T23:16:08.658Z,82.00
2023-04-26T23:19:11.316Z,81.51
2023-04-26T23:22:13.722Z,81.10
2023-04-26T23:25:16.065Z,81.64
2023-04-26T23:28:18.245Z,82.14
2023-04-26T23:31:21.029Z,80.21
2023-04-26T23:34:23.921Z,77.05
2023-04-26T23:37:26.174Z,74.63
2023-04-26T23:40:28.427Z,73.87
2023-04-26T23:43:30.656Z,73.33
2023-04-26T23:46:32.968Z,73.07
2023-04-26T23:49:35.297Z,72.34
2023-04-26T23:52:37.565Z,73.48
2023-04-26T23:55:39.806Z,74.07
2023-04-26T23:58:42.070Z,73.39
